sensor_id;sensor_type;location;lat;lon;timestamp;pressure;altitude;pressure_sealevel;temperature;humidity
55679;BME280;41573;51.446;-2.018;2023-03-26T00:01:08;96228.16;;;8.37;100.00
55679;BME280;41573;51.446;-2.018;2023-03-26T00:03:34;96239.13;;;8.34;100.00
55679;BME280;41573;51.446;-2.018;2023-03-26T00:06:08;96255.88;;;8.35;100.00
55679;BME280;41573;51.446;-2.018;2023-03-26T00:08:35;96273.56;;;8.34;100.00
55679;BME280;41573;51.446;-2.018;2023-03-26T00:11:01;96295.81;;;8.33;100.00
55679;BME280;41573;51.446;-2.018;2023-03-26T00:13:27;96310.25;;;8.31;100.00
55679;BME280;41573;51.446;-2.018;2023-03-26T00:15:52;96308.41;;;8.31;100.00
55679;BME280;41573;51.446;-2.018;2023-03-26T00:18:19;96322.03;;;8.28;100.00
55679;BME280;41573;51.446;-2.018;2023-03-26T00:20:46;96322.03;;;8.28;100.00
55679;BME280;41573;51.446;-2.018;2023-03-26T00:23:11;96332.63;;;8.28;100.00
55679;BME280;41573;51.446;-2.018;2023-03-26T00:25:37;96331.16;;;8.25;100.00
55679;BME280;41573;51.446;-2.018;2023-03-26T00:28:06;96341.13;;;8.23;100.00
55679;BME280;41573;51.446;-2.018;2023-03-26T00:30:32;96332.91;;;8.18;100.00
55679;BME280;41573;51.446;-2.018;2023-03-26T00:33:00;96342.03;;;8.16;100.00
55679;BME280;41573;51.446;-2.018;2023-03-26T00:35:26;96333.09;;;8.02;100.00
55679;BME280;41573;51.446;-2.018;2023-03-26T00:37:53;96327.00;;;7.93;100.00
55679;BME280;41573;51.446;-2.018;2023-03-26T00:40:19;96309.84;;;7.89;100.00
55679;BME280;41573;51.446;-2.018;2023-03-26T00:42:44;96278.16;;;7.81;100.00
55679;BME280;41573;51.446;-2.018;2023-03-26T00:45:10;96237.13;;;7.76;100.00
55679;BME280;41573;51.446;-2.018;2023-03-26T00:47:36;96208.19;;;7.75;100.00
55679;BME280;41573;51.446;-2.018;2023-03-26T00:50:01;96159.44;;;7.69;100.00
55679;BME280;41573;51.446;-2.018;2023-03-26T00:52:28;96026.50;;;7.59;100.00
55679;BME280;41573;51.446;-2.018;2023-03-26T00:54:54;95590.72;;;7.58;100.00
55679;BME280;41573;51.446;-2.018;2023-03-26T00:57:21;95231.16;;;7.55;100.00
55679;BME280;41573;51.446;-2.018;2023-03-26T00:59:50;94902.97;;;7.55;100.00
55679;BME280;41573;51.446;-2.018;2023-03-26T01:02:18;94658.69;;;7.54;100.00
55679;BME280;41573;51.446;-2.018;2023-03-26T01:04:52;94347.25;;;7.55;100.00
55679;BME280;41573;51.446;-2.018;2023-03-26T01:07:21;94143.03;;;7.46;100.00
55679;BME280;41573;51.446;-2.018;2023-03-26T01:09:54;93987.78;;;7.47;100.00
55679;BME280;41573;51.446;-2.018;2023-03-26T01:12:27;93850.19;;;7.47;100.00
55679;BME280;41573;51.446;-2.018;2023-03-26T01:14:57;93712.56;;;7.41;100.00
55679;BME280;41573;51.446;-2.018;2023-03-26T01:17:25;93598.28;;;7.39;100.00
55679;BME280;41573;51.446;-2.018;2023-03-26T01:20:19;93473.13;;;7.39;100.00
55679;BME280;41573;51.446;-2.018;2023-03-26T01:22:56;93394.88;;;7.38;100.00
55679;BME280;41573;51.446;-2.018;2023-03-26T01:25:26;93334.28;;;7.36;100.00
55679;BME280;41573;51.446;-2.018;2023-03-26T01:27:56;93281.41;;;7.36;100.00
55679;BME280;41573;51.446;-2.018;2023-03-26T01:33:39;93095.19;;;7.32;100.00
55679;BME280;41573;51.446;-2.018;2023-03-26T01:39:34;92902.69;;;7.29;100.00
55679;BME280;41573;51.446;-2.018;2023-03-26T01:42:18;92827.31;;;7.27;100.00
55679;BME280;41573;51.446;-2.018;2023-03-26T01:45:02;92734.25;;;7.24;100.00
55679;BME280;41573;51.446;-2.018;2023-03-26T01:47:31;92663.66;;;7.20;100.00
55679;BME280;41573;51.446;-2.018;2023-03-26T01:49:57;92633.00;;;7.14;100.00
55679;BME280;41573;51.446;-2.018;2023-03-26T01:52:23;92590.19;;;7.12;100.00
55679;BME280;41573;51.446;-2.018;2023-03-26T01:54:52;92567.47;;;7.05;100.00
55679;BME280;41573;51.446;-2.018;2023-03-26T01:57:28;92537.34;;;7.06;100.00
55679;BME280;41573;51.446;-2.018;2023-03-26T02:05:28;92402.34;;;6.93;100.00
55679;BME280;41573;51.446;-2.018;2023-03-26T02:10:44;92344.50;;;6.91;100.00
55679;BME280;41573;51.446;-2.018;2023-03-26T10:46:01;85994.13;;;9.45;100.00
55679;BME280;41573;51.446;-2.018;2023-03-26T10:54:07;86046.38;;;10.25;100.00
55679;BME280;41573;51.446;-2.018;2023-03-26T10:56:37;86085.41;;;10.52;100.00
55679;BME280;41573;51.446;-2.018;2023-03-26T10:59:05;86230.72;;;10.57;100.00
55679;BME280;41573;51.446;-2.018;2023-03-26T11:10:10;87136.50;;;9.49;100.00
55679;BME280;41573;51.446;-2.018;2023-03-26T11:12:45;87331.44;;;9.30;100.00
55679;BME280;41573;51.446;-2.018;2023-03-26T11:18:15;87685.78;;;9.23;100.00
55679;BME280;41573;51.446;-2.018;2023-03-26T11:21:49;87841.19;;;9.33;100.00
55679;BME280;41573;51.446;-2.018;2023-03-26T11:32:45;88584.94;;;9.18;100.00
55679;BME280;41573;51.446;-2.018;2023-03-26T11:35:35;88756.00;;;9.08;100.00
55679;BME280;41573;51.446;-2.018;2023-03-26T11:38:05;88920.91;;;8.98;100.00
55679;BME280;41573;51.446;-2.018;2023-03-26T11:40:35;89082.75;;;8.89;100.00
55679;BME280;41573;51.446;-2.018;2023-03-26T11:43:05;89204.56;;;8.86;100.00
55679;BME280;41573;51.446;-2.018;2023-03-26T11:45:35;89312.00;;;8.87;100.00
55679;BME280;41573;51.446;-2.018;2023-03-26T11:48:07;89439.47;;;8.85;100.00
55679;BME280;41573;51.446;-2.018;2023-03-26T11:50:38;89540.81;;;8.82;100.00
55679;BME280;41573;51.446;-2.018;2023-03-26T11:53:12;89657.66;;;8.77;100.00
55679;BME280;41573;51.446;-2.018;2023-03-26T11:55:43;89731.50;;;8.82;100.00
55679;BME280;41573;51.446;-2.018;2023-03-26T11:58:28;89817.16;;;8.70;100.00
55679;BME280;41573;51.446;-2.018;2023-03-26T12:00:55;89904.69;;;8.77;100.00
55679;BME280;41573;51.446;-2.018;2023-03-26T12:03:21;89976.03;;;8.70;100.00
55679;BME280;41573;51.446;-2.018;2023-03-26T12:05:49;90067.22;;;8.57;100.00
55679;BME280;41573;51.446;-2.018;2023-03-26T12:08:22;90129.47;;;8.51;100.00
55679;BME280;41573;51.446;-2.018;2023-03-26T12:11:02;90163.78;;;8.47;100.00
55679;BME280;41573;51.446;-2.018;2023-03-26T12:13:33;90078.69;;;8.61;100.00
55679;BME280;41573;51.446;-2.018;2023-03-26T12:16:07;89970.06;;;8.73;100.00
55679;BME280;41573;51.446;-2.018;2023-03-26T12:18:33;90008.75;;;8.62;100.00
55679;BME280;41573;51.446;-2.018;2023-03-26T12:21:05;90019.84;;;8.39;100.00
55679;BME280;41573;51.446;-2.018;2023-03-26T12:26:18;90188.38;;;8.35;100.00
55679;BME280;41573;51.446;-2.018;2023-03-26T12:28:48;90236.00;;;8.35;100.00
55679;BME280;41573;51.446;-2.018;2023-03-26T12:31:15;90292.94;;;8.41;100.00
55679;BME280;41573;51.446;-2.018;2023-03-26T12:33:44;90310.59;;;8.62;100.00
55679;BME280;41573;51.446;-2.018;2023-03-26T12:36:20;90392.03;;;8.65;100.00
55679;BME280;41573;51.446;-2.018;2023-03-26T12:38:49;90478.75;;;8.68;100.00
55679;BME280;41573;51.446;-2.018;2023-03-26T12:41:17;90609.56;;;8.55;100.00
55679;BME280;41573;51.446;-2.018;2023-03-26T12:43:43;90741.06;;;8.51;100.00
55679;BME280;41573;51.446;-2.018;2023-03-26T12:46:33;90932.97;;;8.36;100.00
55679;BME280;41573;51.446;-2.018;2023-03-26T12:49:09;91132.13;;;8.33;100.00
55679;BME280;41573;51.446;-2.018;2023-03-26T12:51:56;91443.44;;;8.34;100.00
55679;BME280;41573;51.446;-2.018;2023-03-26T12:54:44;91704.19;;;8.36;100.00
55679;BME280;41573;51.446;-2.018;2023-03-26T12:57:26;92227.22;;;8.28;100.00
55679;BME280;41573;51.446;-2.018;2023-03-26T13:11:07;93084.72;;;8.42;100.00
55679;BME280;41573;51.446;-2.018;2023-03-26T13:19:03;93514.28;;;8.28;100.00
55679;BME280;41573;51.446;-2.018;2023-03-26T13:35:22;94131.91;;;8.66;100.00
55679;BME280;41573;51.446;-2.018;2023-03-26T13:43:31;94466.72;;;8.55;100.00
55679;BME280;41573;51.446;-2.018;2023-03-26T13:46:15;94552.38;;;8.67;100.00
55679;BME280;41573;51.446;-2.018;2023-03-26T13:51:20;94876.66;;;8.79;100.00
55679;BME280;41573;51.446;-2.018;2023-03-26T13:54:27;95073.28;;;8.83;100.00
55679;BME280;41573;51.446;-2.018;2023-03-26T13:57:36;95167.78;;;8.77;100.00
55679;BME280;41573;51.446;-2.018;2023-03-26T14:00:14;95243.94;;;8.57;100.00
55679;BME280;41573;51.446;-2.018;2023-03-26T14:02:52;95334.06;;;8.63;100.00
55679;BME280;41573;51.446;-2.018;2023-03-26T14:05:23;95373.47;;;8.60;100.00
55679;BME280;41573;51.446;-2.018;2023-03-26T14:10:22;95501.75;;;8.66;100.00
55679;BME280;41573;51.446;-2.018;2023-03-26T14:12:55;95556.38;;;8.73;100.00
55679;BME280;41573;51.446;-2.018;2023-03-26T14:15:29;95575.97;;;8.72;100.00
55679;BME280;41573;51.446;-2.018;2023-03-26T14:24:06;95659.63;;;8.88;100.00
55679;BME280;41573;51.446;-2.018;2023-03-26T14:29:22;95735.97;;;8.93;100.00
55679;BME280;41573;51.446;-2.018;2023-03-26T14:34:52;95818.78;;;8.82;100.00
55679;BME280;41573;51.446;-2.018;2023-03-26T14:43:42;95950.84;;;8.93;100.00
55679;BME280;41573;51.446;-2.018;2023-03-26T14:49:21;96038.44;;;9.00;100.00
55679;BME280;41573;51.446;-2.018;2023-03-26T14:54:25;96121.81;;;9.12;100.00
55679;BME280;41573;51.446;-2.018;2023-03-26T15:00:12;96221.38;;;9.08;100.00
55679;BME280;41573;51.446;-2.018;2023-03-26T15:11:18;96428.94;;;8.58;100.00
55679;BME280;41573;51.446;-2.018;2023-03-26T15:14:15;96487.94;;;8.60;100.00
55679;BME280;41573;51.446;-2.018;2023-03-26T15:25:35;96641.00;;;8.43;100.00
55679;BME280;41573;51.446;-2.018;2023-03-26T15:28:13;96631.97;;;8.61;100.00
55679;BME280;41573;51.446;-2.018;2023-03-26T15:47:25;96860.75;;;8.47;100.00
55679;BME280;41573;51.446;-2.018;2023-03-26T15:56:07;96960.84;;;8.36;100.00
55679;BME280;41573;51.446;-2.018;2023-03-26T16:07:00;97068.53;;;8.21;100.00
55679;BME280;41573;51.446;-2.018;2023-03-26T16:09:50;97103.97;;;8.20;100.00
55679;BME280;41573;51.446;-2.018;2023-03-26T16:12:34;97138.97;;;8.23;100.00
55679;BME280;41573;51.446;-2.018;2023-03-26T16:29:20;97245.47;;;8.19;100.00
55679;BME280;41573;51.446;-2.018;2023-03-26T16:32:15;97264.59;;;8.04;100.00
55679;BME280;41573;51.446;-2.018;2023-03-26T16:46:02;97411.69;;;8.00;100.00
55679;BME280;41573;51.446;-2.018;2023-03-26T17:13:39;97569.78;;;8.09;100.00
55679;BME280;41573;51.446;-2.018;2023-03-26T17:21:25;97614.16;;;8.07;100.00
55679;BME280;41573;51.446;-2.018;2023-03-26T17:24:06;97633.38;;;8.09;100.00
55679;BME280;41573;51.446;-2.018;2023-03-26T17:26:52;97665.09;;;8.01;100.00
55679;BME280;41573;51.446;-2.018;2023-03-26T17:32:15;97750.34;;;7.97;100.00
55679;BME280;41573;51.446;-2.018;2023-03-26T17:34:54;97776.09;;;8.04;100.00
55679;BME280;41573;51.446;-2.018;2023-03-26T17:42:33;97817.38;;;8.17;100.00
55679;BME280;41573;51.446;-2.018;2023-03-26T17:45:19;97791.13;;;8.51;100.00
55679;BME280;41573;51.446;-2.018;2023-03-26T17:47:51;97802.50;;;8.71;100.00
55679;BME280;41573;51.446;-2.018;2023-03-26T17:50:21;97828.13;;;8.80;100.00
55679;BME280;41573;51.446;-2.018;2023-03-26T17:53:01;97856.34;;;8.82;100.00
55679;BME280;41573;51.446;-2.018;2023-03-26T17:55:36;97886.66;;;8.79;100.00
55679;BME280;41573;51.446;-2.018;2023-03-26T18:01:04;97904.44;;;8.69;100.00
55679;BME280;41573;51.446;-2.018;2023-03-26T18:03:34;97932.00;;;8.48;100.00
55679;BME280;41573;51.446;-2.018;2023-03-26T18:06:13;97956.47;;;8.22;100.00
55679;BME280;41573;51.446;-2.018;2023-03-26T18:16:55;97960.69;;;7.56;100.00
55679;BME280;41573;51.446;-2.018;2023-03-26T18:19:24;97958.28;;;7.44;100.00
55679;BME280;41573;51.446;-2.018;2023-03-26T18:22:01;97958.53;;;7.40;100.00
55679;BME280;41573;51.446;-2.018;2023-03-26T18:24:39;97951.72;;;7.28;100.00
55679;BME280;41573;51.446;-2.018;2023-03-26T18:27:11;97937.22;;;7.22;100.00
55679;BME280;41573;51.446;-2.018;2023-03-26T18:29:42;97920.72;;;7.09;100.00
55679;BME280;41573;51.446;-2.018;2023-03-26T18:34:36;97942.69;;;6.90;100.00
55679;BME280;41573;51.446;-2.018;2023-03-26T18:37:14;97935.53;;;6.81;100.00
55679;BME280;41573;51.446;-2.018;2023-03-26T18:40:06;97939.00;;;6.71;100.00
55679;BME280;41573;51.446;-2.018;2023-03-26T18:42:42;97943.13;;;6.64;100.00
55679;BME280;41573;51.446;-2.018;2023-03-26T18:45:26;97934.19;;;6.55;100.00
55679;BME280;41573;51.446;-2.018;2023-03-26T18:47:55;97944.72;;;6.46;100.00
55679;BME280;41573;51.446;-2.018;2023-03-26T18:50:32;97936.06;;;6.44;100.00
55679;BME280;41573;51.446;-2.018;2023-03-26T18:53:02;97934.91;;;6.36;100.00
55679;BME280;41573;51.446;-2.018;2023-03-26T18:55:30;97937.41;;;6.28;100.00
55679;BME280;41573;51.446;-2.018;2023-03-26T18:57:57;97939.84;;;6.20;100.00
55679;BME280;41573;51.446;-2.018;2023-03-26T19:00:27;97952.06;;;6.21;100.00
55679;BME280;41573;51.446;-2.018;2023-03-26T19:03:03;97940.34;;;6.14;100.00
55679;BME280;41573;51.446;-2.018;2023-03-26T19:05:31;97947.44;;;6.13;100.00
55679;BME280;41573;51.446;-2.018;2023-03-26T19:08:00;97943.13;;;6.12;100.00
55679;BME280;41573;51.446;-2.018;2023-03-26T19:10:28;97937.00;;;6.12;100.00
55679;BME280;41573;51.446;-2.018;2023-03-26T19:13:02;97936.47;;;6.18;100.00
55679;BME280;41573;51.446;-2.018;2023-03-26T19:15:32;97940.88;;;6.08;100.00
55679;BME280;41573;51.446;-2.018;2023-03-26T19:18:02;97935.06;;;6.14;100.00
55679;BME280;41573;51.446;-2.018;2023-03-26T19:20:56;97935.78;;;6.16;100.00
55679;BME280;41573;51.446;-2.018;2023-03-26T19:23:26;97937.47;;;6.17;100.00
55679;BME280;41573;51.446;-2.018;2023-03-26T19:25:57;97940.94;;;6.17;100.00
55679;BME280;41573;51.446;-2.018;2023-03-26T19:28:30;97946.34;;;6.16;100.00
55679;BME280;41573;51.446;-2.018;2023-03-26T19:31:06;97943.13;;;6.12;100.00
55679;BME280;41573;51.446;-2.018;2023-03-26T19:33:36;97943.38;;;6.09;100.00
55679;BME280;41573;51.446;-2.018;2023-03-26T19:43:47;97934.16;;;6.03;100.00
55679;BME280;41573;51.446;-2.018;2023-03-26T19:46:13;97946.69;;;6.01;100.00
55679;BME280;41573;51.446;-2.018;2023-03-26T19:48:45;97938.22;;;6.08;100.00
55679;BME280;41573;51.446;-2.018;2023-03-26T19:51:29;97943.13;;;6.12;100.00
55679;BME280;41573;51.446;-2.018;2023-03-26T19:53:57;97944.94;;;6.12;100.00
55679;BME280;41573;51.446;-2.018;2023-03-26T19:56:25;97948.28;;;6.14;100.00
55679;BME280;41573;51.446;-2.018;2023-03-26T19:58:51;97955.97;;;6.17;100.00
55679;BME280;41573;51.446;-2.018;2023-03-26T20:01:20;97971.28;;;6.23;100.00
55679;BME280;41573;51.446;-2.018;2023-03-26T20:03:50;97964.31;;;6.22;100.00
55679;BME280;41573;51.446;-2.018;2023-03-26T20:06:18;97981.03;;;6.23;100.00
55679;BME280;41573;51.446;-2.018;2023-03-26T20:08:45;97982.19;;;6.30;100.00
55679;BME280;41573;51.446;-2.018;2023-03-26T20:11:18;97983.28;;;6.27;100.00
55679;BME280;41573;51.446;-2.018;2023-03-26T20:13:44;98001.53;;;6.30;100.00
55679;BME280;41573;51.446;-2.018;2023-03-26T20:16:15;98012.78;;;6.32;100.00
55679;BME280;41573;51.446;-2.018;2023-03-26T20:18:43;98013.66;;;6.33;100.00
55679;BME280;41573;51.446;-2.018;2023-03-26T20:21:12;98023.38;;;6.32;100.00
55679;BME280;41573;51.446;-2.018;2023-03-26T20:23:39;98030.34;;;6.33;100.00
55679;BME280;41573;51.446;-2.018;2023-03-26T20:26:04;98037.84;;;6.28;100.00
55679;BME280;41573;51.446;-2.018;2023-03-26T20:28:34;98035.88;;;6.30;100.00
55679;BME280;41573;51.446;-2.018;2023-03-26T20:30:59;98043.13;;;6.28;100.00
55679;BME280;41573;51.446;-2.018;2023-03-26T20:33:25;98057.72;;;6.32;100.00
55679;BME280;41573;51.446;-2.018;2023-03-26T20:35:55;98058.72;;;6.31;100.00
55679;BME280;41573;51.446;-2.018;2023-03-26T20:38:22;98061.63;;;6.28;100.00
55679;BME280;41573;51.446;-2.018;2023-03-26T20:40:49;98065.78;;;6.31;100.00
55679;BME280;41573;51.446;-2.018;2023-03-26T20:43:16;98075.94;;;6.26;100.00
55679;BME280;41573;51.446;-2.018;2023-03-26T20:45:44;98079.13;;;6.29;100.00
55679;BME280;41573;51.446;-2.018;2023-03-26T20:48:10;98085.97;;;6.32;100.00
55679;BME280;41573;51.446;-2.018;2023-03-26T20:50:38;98091.06;;;6.24;100.00
55679;BME280;41573;51.446;-2.018;2023-03-26T20:53:12;98096.47;;;6.22;100.00
55679;BME280;41573;51.446;-2.018;2023-03-26T20:55:42;98109.31;;;6.27;100.00
55679;BME280;41573;51.446;-2.018;2023-03-26T20:58:12;98113.63;;;6.28;100.00
55679;BME280;41573;51.446;-2.018;2023-03-26T21:00:38;98114.59;;;6.27;100.00
55679;BME280;41573;51.446;-2.018;2023-03-26T21:03:03;98138.28;;;6.28;100.00
55679;BME280;41573;51.446;-2.018;2023-03-26T21:05:29;98137.81;;;6.23;100.00
55679;BME280;41573;51.446;-2.018;2023-03-26T21:08:00;98139.72;;;6.21;100.00
55679;BME280;41573;51.446;-2.018;2023-03-26T21:10:27;98148.75;;;6.18;100.00
55679;BME280;41573;51.446;-2.018;2023-03-26T21:15:27;98162.09;;;6.17;100.00
55679;BME280;41573;51.446;-2.018;2023-03-26T21:17:54;98175.06;;;6.20;100.00
55679;BME280;41573;51.446;-2.018;2023-03-26T21:20:21;98185.38;;;6.23;100.00
55679;BME280;41573;51.446;-2.018;2023-03-26T21:23:08;98182.72;;;6.23;100.00
55679;BME280;41573;51.446;-2.018;2023-03-26T21:25:46;98182.25;;;6.18;100.00
55679;BME280;41573;51.446;-2.018;2023-03-26T21:28:37;98187.28;;;6.21;100.00
55679;BME280;41573;51.446;-2.018;2023-03-26T21:31:11;98186.72;;;6.17;100.00
55679;BME280;41573;51.446;-2.018;2023-03-26T21:33:37;98192.50;;;6.11;100.00
55679;BME280;41573;51.446;-2.018;2023-03-26T21:36:05;98197.78;;;6.11;100.00
55679;BME280;41573;51.446;-2.018;2023-03-26T21:38:31;98213.72;;;6.10;100.00
55679;BME280;41573;51.446;-2.018;2023-03-26T21:40:59;98235.34;;;6.15;100.00
55679;BME280;41573;51.446;-2.018;2023-03-26T21:43:25;98238.50;;;6.09;100.00
55679;BME280;41573;51.446;-2.018;2023-03-26T21:45:51;98244.63;;;6.09;100.00
55679;BME280;41573;51.446;-2.018;2023-03-26T21:48:19;98245.44;;;6.10;100.00
55679;BME280;41573;51.446;-2.018;2023-03-26T21:50:45;98262.53;;;6.06;100.00
55679;BME280;41573;51.446;-2.018;2023-03-26T21:53:12;98284.38;;;6.08;100.00
55679;BME280;41573;51.446;-2.018;2023-03-26T21:56:26;98282.69;;;6.07;100.00
55679;BME280;41573;51.446;-2.018;2023-03-26T22:01:48;98320.75;;;6.04;100.00
55679;BME280;41573;51.446;-2.018;2023-03-26T22:04:28;98319.91;;;6.03;100.00
55679;BME280;41573;51.446;-2.018;2023-03-26T22:09:31;98327.97;;;6.02;100.00
55679;BME280;41573;51.446;-2.018;2023-03-26T22:11:56;98335.78;;;6.03;100.00
55679;BME280;41573;51.446;-2.018;2023-03-26T22:14:22;98348.28;;;6.01;100.00
55679;BME280;41573;51.446;-2.018;2023-03-26T22:16:49;98343.22;;;5.98;100.00
55679;BME280;41573;51.446;-2.018;2023-03-26T22:19:15;98343.94;;;6.00;100.00
55679;BME280;41573;51.446;-2.018;2023-03-26T22:21:41;98345.75;;;6.00;100.00
55679;BME280;41573;51.446;-2.018;2023-03-26T22:24:06;98366.25;;;5.96;100.00
55679;BME280;41573;51.446;-2.018;2023-03-26T22:26:32;98372.34;;;5.97;100.00
55679;BME280;41573;51.446;-2.018;2023-03-26T22:28:58;98389.94;;;5.98;100.00
55679;BME280;41573;51.446;-2.018;2023-03-26T22:31:23;98408.53;;;5.96;100.00
55679;BME280;41573;51.446;-2.018;2023-03-26T22:33:51;98413.28;;;5.91;100.00
55679;BME280;41573;51.446;-2.018;2023-03-26T22:36:17;98424.84;;;5.90;100.00
55679;BME280;41573;51.446;-2.018;2023-03-26T22:38:43;98443.09;;;5.93;100.00
55679;BME280;41573;51.446;-2.018;2023-03-26T22:41:08;98453.34;;;5.98;100.00
55679;BME280;41573;51.446;-2.018;2023-03-26T22:43:35;98446.56;;;5.94;100.00
55679;BME280;41573;51.446;-2.018;2023-03-26T22:46:00;98464.34;;;5.92;100.00
55679;BME280;41573;51.446;-2.018;2023-03-26T22:48:28;98486.19;;;5.94;100.00
55679;BME280;41573;51.446;-2.018;2023-03-26T22:51:05;98494.13;;;5.94;100.00
55679;BME280;41573;51.446;-2.018;2023-03-26T22:53:31;98504.09;;;5.90;100.00
55679;BME280;41573;51.446;-2.018;2023-03-26T22:55:57;98510.34;;;5.89;100.00
55679;BME280;41573;51.446;-2.018;2023-03-26T22:58:24;98518.03;;;5.92;100.00
55679;BME280;41573;51.446;-2.018;2023-03-26T23:00:58;98521.84;;;5.88;100.00
55679;BME280;41573;51.446;-2.018;2023-03-26T23:03:24;98541.31;;;5.87;100.00
55679;BME280;41573;51.446;-2.018;2023-03-26T23:05:56;98550.59;;;5.93;100.00
55679;BME280;41573;51.446;-2.018;2023-03-26T23:08:23;98554.19;;;5.92;100.00
55679;BME280;41573;51.446;-2.018;2023-03-26T23:10:49;98548.16;;;5.90;100.00
55679;BME280;41573;51.446;-2.018;2023-03-26T23:13:16;98560.28;;;5.92;100.00
55679;BME280;41573;51.446;-2.018;2023-03-26T23:15:41;98563.88;;;5.91;100.00
55679;BME280;41573;51.446;-2.018;2023-03-26T23:18:09;98578.06;;;5.90;100.00
55679;BME280;41573;51.446;-2.018;2023-03-26T23:20:34;98587.88;;;5.88;100.00
55679;BME280;41573;51.446;-2.018;2023-03-26T23:23:03;98595.81;;;5.88;100.00
55679;BME280;41573;51.446;-2.018;2023-03-26T23:25:29;98603.03;;;5.86;100.00
55679;BME280;41573;51.446;-2.018;2023-03-26T23:27:55;98613.59;;;5.86;100.00
55679;BME280;41573;51.446;-2.018;2023-03-26T23:30:21;98620.47;;;5.89;100.00
55679;BME280;41573;51.446;-2.018;2023-03-26T23:32:46;98620.56;;;5.87;100.00
55679;BME280;41573;51.446;-2.018;2023-03-26T23:35:12;98621.53;;;5.86;100.00
55679;BME280;41573;51.446;-2.018;2023-03-26T23:37:38;98628.50;;;5.87;100.00
55679;BME280;41573;51.446;-2.018;2023-03-26T23:40:08;98637.59;;;5.83;100.00
55679;BME280;41573;51.446;-2.018;2023-03-26T23:42:36;98634.19;;;5.81;100.00
55679;BME280;41573;51.446;-2.018;2023-03-26T23:45:05;98635.25;;;5.78;100.00
55679;BME280;41573;51.446;-2.018;2023-03-26T23:47:31;98646.69;;;5.79;100.00
55679;BME280;41573;51.446;-2.018;2023-03-26T23:50:03;98659.69;;;5.82;100.00
55679;BME280;41573;51.446;-2.018;2023-03-26T23:52:29;98665.41;;;5.76;100.00
55679;BME280;41573;51.446;-2.018;2023-03-26T23:54:56;98682.69;;;5.80;100.00
55679;BME280;41573;51.446;-2.018;2023-03-26T23:57:24;98686.63;;;5.74;100.00
55679;BME280;41573;51.446;-2.018;2023-03-26T23:59:50;98687.69;;;5.72;100.00
